createdAt,value
2019-03-23T00:00:48.355Z,60.48
2019-03-23T00:03:23.755Z,60.60
2019-03-23T00:06:03.176Z,61.15
2019-03-23T00:08:37.614Z,60.73
2019-03-23T00:11:09.657Z,60.09
2019-03-23T00:13:45.332Z,60.45
2019-03-23T00:16:18.022Z,61.20
2019-03-23T00:18:52.424Z,61.41
2019-03-23T00:21:24.168Z,62.06
2019-03-23T00:23:57.575Z,62.25
2019-03-23T00:26:31.052Z,61.80
2019-03-23T00:29:34.440Z,61.81
2019-03-23T00:32:20.120Z,61.35
2019-03-23T00:35:14.207Z,60.01
2019-03-23T00:37:47.955Z,59.46
2019-03-23T00:40:20.581Z,59.73
2019-03-23T00:42:58.946Z,59.59
2019-03-23T00:45:33.024Z,60.51
2019-03-23T00:48:14.752Z,60.89
2019-03-23T00:50:54.341Z,60.74
2019-03-23T00:53:25.923Z,60.23
2019-03-23T00:55:57.896Z,60.39
2019-03-23T00:58:30.401Z,60.60
2019-03-23T01:01:14.484Z,60.49
2019-03-23T01:03:54.660Z,60.65
2019-03-23T01:06:38.906Z,60.65
2019-03-23T01:09:20.200Z,60.56
2019-03-23T01:12:00.108Z,59.25
2019-03-23T01:14:39.125Z,59.64
2019-03-23T01:17:23.001Z,59.86
2019-03-23T01:20:16.445Z,60.24
2019-03-23T01:22:56.192Z,60.07
2019-03-23T01:25:39.716Z,59.98
2019-03-23T01:28:19.059Z,59.93
2019-03-23T01:31:17.300Z,59.88
2019-03-23T01:34:01.871Z,60.22
2019-03-23T01:36:46.289Z,60.23
2019-03-23T01:39:40.391Z,59.86
2019-03-23T01:42:18.434Z,59.70
2019-03-23T01:44:55.872Z,59.21
2019-03-23T01:47:30.181Z,59.43
2019-03-23T01:50:18.720Z,59.74
2019-03-23T01:52:54.546Z,60.19
2019-03-23T01:55:27.815Z,60.31
2019-03-23T01:58:00.991Z,60.26
2019-03-23T02:00:35.078Z,60.60
2019-03-23T02:03:08.644Z,60.97
2019-03-23T02:05:39.626Z,60.60
2019-03-23T02:08:13.283Z,60.79
2019-03-23T02:10:45.270Z,61.23
2019-03-23T02:13:15.632Z,60.92
2019-03-23T02:15:49.087Z,61.03
2019-03-23T02:18:21.459Z,61.06
2019-03-23T02:20:55.585Z,60.89
2019-03-23T02:23:29.678Z,61.04
2019-03-23T02:26:04.588Z,61.29
2019-03-23T02:28:36.699Z,61.31
2019-03-23T02:31:08.685Z,61.40
2019-03-23T02:33:39.595Z,61.17
2019-03-23T02:36:11.617Z,60.72
2019-03-23T02:38:43.592Z,60.62
2019-03-23T02:41:19.480Z,60.07
2019-03-23T02:43:50.587Z,59.70
2019-03-23T02:46:22.510Z,59.55
2019-03-23T02:48:54.678Z,60.08
2019-03-23T02:51:28.210Z,60.26
2019-03-23T02:54:00.700Z,59.84
2019-03-23T02:56:33.454Z,60.16
2019-03-23T02:59:05.511Z,59.88
2019-03-23T03:01:38.798Z,60.01
2019-03-23T03:04:11.859Z,60.02
2019-03-23T03:06:46.858Z,59.43
2019-03-23T03:09:19.123Z,59.82
2019-03-23T03:12:05.740Z,59.91
2019-03-23T03:14:41.609Z,60.33
2019-03-23T03:17:16.998Z,60.71
2019-03-23T03:19:49.516Z,61.59
2019-03-23T03:22:24.335Z,61.53
2019-03-23T03:25:04.171Z,61.75
2019-03-23T03:27:41.608Z,61.86
2019-03-23T03:30:17.919Z,61.48
2019-03-23T03:33:03.459Z,61.54
2019-03-23T03:35:39.899Z,62.33
2019-03-23T03:38:25.588Z,62.02
2019-03-23T03:41:09.356Z,61.61
2019-03-23T03:43:43.730Z,60.06
2019-03-23T03:46:18.933Z,59.72
2019-03-23T03:49:11.787Z,59.92
2019-03-23T03:51:39.766Z,59.53
2019-03-23T03:54:18.129Z,58.94
2019-03-23T03:56:56.484Z,58.90
2019-03-23T03:59:33.072Z,58.74
2019-03-23T04:02:07.462Z,57.81
2019-03-23T04:04:41.839Z,57.25
2019-03-23T04:07:15.705Z,57.49
2019-03-23T04:09:47.911Z,57.26
2019-03-23T04:12:21.650Z,57.55
2019-03-23T04:15:14.013Z,57.82
2019-03-23T04:17:47.988Z,57.16
2019-03-23T04:20:26.626Z,56.88
2019-03-23T04:23:04.049Z,56.70
2019-03-23T04:25:47.448Z,56.89
2019-03-23T04:28:27.218Z,56.63
2019-03-23T04:31:02.407Z,56.00
2019-03-23T04:33:44.730Z,56.18
2019-03-23T04:36:26.364Z,54.84
2019-03-23T04:39:05.684Z,54.75
2019-03-23T04:41:40.590Z,54.77
2019-03-23T04:44:14.490Z,54.73
2019-03-23T04:46:56.370Z,55.05
2019-03-23T04:49:30.943Z,55.46
2019-03-23T04:52:06.003Z,54.71
2019-03-23T04:54:39.257Z,54.08
2019-03-23T04:57:13.425Z,54.21
2019-03-23T04:59:44.203Z,54.27
2019-03-23T05:02:20.456Z,54.19
2019-03-23T05:04:56.343Z,54.59
2019-03-23T05:07:34.481Z,54.10
2019-03-23T05:10:07.589Z,53.93
2019-03-23T05:12:40.398Z,53.43
2019-03-23T05:15:13.072Z,53.48
2019-03-23T05:17:45.938Z,53.79
2019-03-23T05:20:32.314Z,54.04
2019-03-23T05:23:04.872Z,54.52
2019-03-23T05:25:38.170Z,54.58
2019-03-23T05:28:08.799Z,53.40
2019-03-23T05:30:39.434Z,52.79
2019-03-23T05:33:10.427Z,52.57
2019-03-23T05:35:40.978Z,52.05
2019-03-23T05:38:12.121Z,52.01
2019-03-23T05:40:45.313Z,51.87
2019-03-23T05:43:18.189Z,50.28
2019-03-23T05:45:49.218Z,49.96
2019-03-23T05:48:20.812Z,49.56
2019-03-23T05:50:53.150Z,49.37
2019-03-23T05:53:25.449Z,48.94
2019-03-23T05:55:58.710Z,48.28
2019-03-23T05:58:29.932Z,48.11
2019-03-23T06:01:00.674Z,44.92
2019-03-23T06:03:31.715Z,48.07
2019-03-23T06:06:02.991Z,46.58
2019-03-23T06:08:34.108Z,49.34
2019-03-23T06:11:05.247Z,49.56
2019-03-23T06:13:38.252Z,47.06
2019-03-23T06:16:11.235Z,48.38
2019-03-23T06:18:45.550Z,46.98
2019-03-23T06:21:16.459Z,45.58
2019-03-23T06:23:48.879Z,45.98
2019-03-23T06:26:21.537Z,40.92
2019-03-23T06:28:53.587Z,44.90
2019-03-23T06:31:30.647Z,44.16
2019-03-23T06:34:02.271Z,43.20
2019-03-23T06:36:33.471Z,41.27
2019-03-23T06:39:06.671Z,39.32
2019-03-23T06:41:39.330Z,39.26
2019-03-23T06:44:10.900Z,41.06
2019-03-23T06:46:42.318Z,40.10
2019-03-23T06:49:13.283Z,37.23
2019-03-23T06:51:44.537Z,37.17
2019-03-23T06:54:15.459Z,38.58
2019-03-23T06:56:46.651Z,37.45
2019-03-23T06:59:18.573Z,36.67
2019-03-23T07:01:51.016Z,35.58
2019-03-23T07:04:22.407Z,34.39
2019-03-23T07:06:58.543Z,36.28
2019-03-23T07:09:34.819Z,38.47
2019-03-23T07:12:05.613Z,34.17
2019-03-23T07:14:36.603Z,38.26
2019-03-23T07:17:07.856Z,33.54
2019-03-23T07:19:39.766Z,35.66
2019-03-23T07:22:12.743Z,35.53
2019-03-23T07:24:48.006Z,37.01
2019-03-23T07:27:20.279Z,33.47
2019-03-23T07:29:51.401Z,37.21
2019-03-23T07:32:26.098Z,36.11
2019-03-23T07:34:58.975Z,36.55
2019-03-23T07:37:30.306Z,36.35
2019-03-23T07:40:03.886Z,34.53
2019-03-23T07:42:35.765Z,30.46
2019-03-23T07:45:20.614Z,30.59
2019-03-23T07:47:51.700Z,29.16
2019-03-23T07:50:22.762Z,28.93
2019-03-23T07:52:54.293Z,28.66
2019-03-23T07:55:24.322Z,29.21
2019-03-23T07:57:55.303Z,29.00
2019-03-23T08:00:27.188Z,28.15
2019-03-23T08:02:59.357Z,29.19
2019-03-23T08:05:30.534Z,26.47
2019-03-23T08:08:01.446Z,26.32
2019-03-23T08:10:37.923Z,26.95
2019-03-23T08:13:11.182Z,25.81
2019-03-23T08:15:42.434Z,25.66
2019-03-23T08:18:13.177Z,24.58
2019-03-23T08:20:53.013Z,24.47
2019-03-23T08:23:23.951Z,24.52
2019-03-23T08:25:54.791Z,23.82
2019-03-23T08:28:24.811Z,22.87
2019-03-23T08:30:54.829Z,23.01
2019-03-23T08:41:01.585Z,23.73
2019-03-23T08:43:32.081Z,23.23
2019-03-23T08:46:02.678Z,24.03
2019-03-23T08:48:34.198Z,24.84
2019-03-23T08:51:04.598Z,25.94
2019-03-23T08:53:35.078Z,24.42
2019-03-23T08:56:06.934Z,21.46
2019-03-23T08:58:35.657Z,21.18
2019-03-23T09:01:05.850Z,21.61
2019-03-23T09:03:36.036Z,22.07
2019-03-23T09:06:07.175Z,22.47
2019-03-23T09:08:38.940Z,22.58
2019-03-23T09:11:20.225Z,21.46
2019-03-23T09:13:42.504Z,20.15
2019-03-23T09:16:12.717Z,20.04
2019-03-23T09:18:44.333Z,20.50
2019-03-23T09:21:14.816Z,19.12
2019-03-23T09:23:48.118Z,21.70
2019-03-23T09:26:19.497Z,22.31
2019-03-23T09:28:50.185Z,23.31
2019-03-23T09:31:20.049Z,25.36
2019-03-23T09:33:50.273Z,25.03
2019-03-23T09:36:22.971Z,24.04
2019-03-23T09:38:52.462Z,22.05
2019-03-23T09:41:22.872Z,21.61
2019-03-23T09:43:53.045Z,22.13
2019-03-23T09:46:23.343Z,24.60
2019-03-23T09:48:54.839Z,23.40
2019-03-23T09:51:25.151Z,22.89
2019-03-23T09:53:55.347Z,24.44
2019-03-23T09:56:25.819Z,23.92
2019-03-23T09:58:56.191Z,24.47
2019-03-23T10:01:26.180Z,21.39
2019-03-23T10:03:56.156Z,18.76
2019-03-23T10:06:27.877Z,19.06
2019-03-23T10:08:58.116Z,18.71
2019-03-23T10:11:28.469Z,18.36
2019-03-23T10:13:58.805Z,19.21
2019-03-23T10:16:29.045Z,17.21
2019-03-23T10:19:06.910Z,19.72
2019-03-23T10:21:36.987Z,19.58
2019-03-23T10:24:06.997Z,17.75
2019-03-23T10:26:37.220Z,18.00
2019-03-23T10:29:07.335Z,19.15
2019-03-23T10:31:38.067Z,20.72
2019-03-23T10:34:08.325Z,19.35
2019-03-23T10:36:39.360Z,20.05
2019-03-23T10:39:10.281Z,19.00
2019-03-23T10:41:40.472Z,18.01
2019-03-23T10:44:11.860Z,18.90
2019-03-23T10:46:43.524Z,18.61
2019-03-23T10:49:13.800Z,17.76
2019-03-23T10:51:45.238Z,17.83
2019-03-23T10:54:17.088Z,17.07
2019-03-23T10:56:47.538Z,18.75
2019-03-23T10:59:17.490Z,16.99
2019-03-23T11:01:47.619Z,18.12
2019-03-23T11:04:19.154Z,17.16
2019-03-23T11:06:49.498Z,17.86
2019-03-23T11:09:19.754Z,17.01
2019-03-23T11:11:51.008Z,17.03
2019-03-23T11:14:22.499Z,18.07
2019-03-23T11:16:54.168Z,16.50
2019-03-23T11:19:24.225Z,17.36
2019-03-23T11:21:54.211Z,16.40
2019-03-23T11:24:24.281Z,19.44
2019-03-23T11:26:56.027Z,16.89
2019-03-23T11:29:28.353Z,18.80
2019-03-23T11:31:58.743Z,18.82
2019-03-23T11:34:29.001Z,17.65
2019-03-23T11:36:59.244Z,16.58
2019-03-23T11:39:29.503Z,17.61
2019-03-23T11:42:02.548Z,17.37
2019-03-23T11:44:33.109Z,16.37
2019-03-23T11:47:04.580Z,16.97
2019-03-23T11:49:36.847Z,16.64
2019-03-23T11:52:08.189Z,17.78
2019-03-23T11:54:39.851Z,15.89
2019-03-23T11:57:09.904Z,16.54
2019-03-23T11:59:40.095Z,16.71
2019-03-23T12:02:10.279Z,19.42
2019-03-23T12:04:41.605Z,19.27
2019-03-23T12:07:11.905Z,18.58
2019-03-23T12:09:44.211Z,19.17
2019-03-23T12:12:14.532Z,19.11
2019-03-23T12:14:49.954Z,18.79
2019-03-23T12:17:21.090Z,19.84
2019-03-23T12:19:51.233Z,18.30
2019-03-23T12:22:22.332Z,18.37
2019-03-23T12:24:52.586Z,17.68
2019-03-23T12:27:24.751Z,17.40
2019-03-23T12:29:55.753Z,16.32
2019-03-23T12:32:26.272Z,17.01
2019-03-23T12:34:56.539Z,16.33
2019-03-23T12:37:28.300Z,17.95
2019-03-23T12:39:58.417Z,17.14
2019-03-23T12:42:32.192Z,16.28
2019-03-23T12:45:04.301Z,17.92
2019-03-23T12:47:38.139Z,17.79
2019-03-23T12:50:10.559Z,17.19
2019-03-23T12:52:41.488Z,16.95
2019-03-23T12:55:11.596Z,17.10
2019-03-23T12:57:43.269Z,16.24
2019-03-23T13:00:15.498Z,15.01
2019-03-23T13:02:45.932Z,15.42
2019-03-23T13:05:16.313Z,17.06
2019-03-23T13:07:49.063Z,16.33
2019-03-23T13:10:20.706Z,17.02
2019-03-23T13:12:51.137Z,17.67
2019-03-23T13:15:22.708Z,16.98
2019-03-23T13:17:52.593Z,16.24
2019-03-23T13:20:23.663Z,15.88
2019-03-23T13:22:54.988Z,15.65
2019-03-23T13:25:25.563Z,16.42
2019-03-23T13:27:56.837Z,18.58
2019-03-23T13:30:27.308Z,18.83
2019-03-23T13:32:57.389Z,17.85
2019-03-23T13:35:28.673Z,17.18
2019-03-23T13:37:59.171Z,18.50
2019-03-23T13:40:30.725Z,16.97
2019-03-23T13:43:03.589Z,15.73
2019-03-23T13:45:42.556Z,16.50
2019-03-23T13:48:07.697Z,18.52
2019-03-23T13:50:38.283Z,18.54
2019-03-23T13:53:08.792Z,17.79
2019-03-23T13:55:40.640Z,16.88
2019-03-23T13:58:15.734Z,17.59
2019-03-23T14:00:46.038Z,19.61
2019-03-23T14:03:17.782Z,20.75
2019-03-23T14:05:48.288Z,20.67
2019-03-23T14:08:18.961Z,22.01
2019-03-23T14:10:52.079Z,21.28
2019-03-23T14:20:34.011Z,22.31
2019-03-23T14:23:04.999Z,22.23
2019-03-23T14:25:35.646Z,22.27
2019-03-23T14:28:08.837Z,22.75
2019-03-23T14:30:41.323Z,24.02
2019-03-23T14:33:11.921Z,24.51
2019-03-23T14:35:43.104Z,24.21
2019-03-23T14:38:14.679Z,23.70
2019-03-23T14:40:46.805Z,23.33
2019-03-23T14:43:17.309Z,23.88
2019-03-23T14:45:48.251Z,24.57
2019-03-23T14:48:18.277Z,23.43
2019-03-23T14:50:48.737Z,24.43
2019-03-23T14:53:18.923Z,24.54
2019-03-23T14:55:53.078Z,23.21
2019-03-23T14:58:43.626Z,23.24
2019-03-23T15:01:47.796Z,24.00
2019-03-23T15:04:49.090Z,23.82
2019-03-23T15:07:41.196Z,23.90
2019-03-23T15:10:26.778Z,24.44
2019-03-23T15:13:09.489Z,23.88
2019-03-23T15:15:44.373Z,23.17
2019-03-23T15:18:30.838Z,23.82
2019-03-23T15:21:14.942Z,24.18
2019-03-23T15:24:00.657Z,24.66
2019-03-23T15:26:40.016Z,24.58
2019-03-23T15:29:25.897Z,24.27
2019-03-23T15:32:26.499Z,24.66
2019-03-23T15:35:10.298Z,24.47
2019-03-23T15:37:43.963Z,25.08
2019-03-23T15:40:19.129Z,24.42
2019-03-23T15:42:52.861Z,24.17
2019-03-23T15:45:26.005Z,24.38
2019-03-23T15:47:58.631Z,24.46
2019-03-23T15:50:30.473Z,24.69
2019-03-23T15:53:10.417Z,25.07
2019-03-23T15:55:46.672Z,25.19
2019-03-23T15:58:20.867Z,25.14
2019-03-23T16:00:53.787Z,24.23
2019-03-23T16:03:23.900Z,23.85
2019-03-23T16:05:56.165Z,24.47
2019-03-23T16:08:26.240Z,24.37
2019-03-23T16:10:57.850Z,24.38
2019-03-23T16:13:28.200Z,24.62
2019-03-23T16:15:58.396Z,24.83
2019-03-23T16:18:28.349Z,25.43
2019-03-23T16:21:00.058Z,25.20
2019-03-23T16:23:31.190Z,25.34
2019-03-23T16:26:05.330Z,25.17
2019-03-23T16:28:36.100Z,25.28
2019-03-23T16:31:07.981Z,25.50
2019-03-23T16:33:38.331Z,25.08
2019-03-23T16:36:10.853Z,25.58
2019-03-23T16:38:42.312Z,25.95
2019-03-23T16:41:13.922Z,26.59
2019-03-23T16:43:46.374Z,27.71
2019-03-23T16:46:24.159Z,29.54
2019-03-23T16:48:56.531Z,30.05
2019-03-23T16:51:27.028Z,30.44
2019-03-23T16:53:57.358Z,30.72
2019-03-23T16:56:27.677Z,31.17
2019-03-23T16:58:59.960Z,31.02
2019-03-23T17:01:32.014Z,30.40
2019-03-23T17:04:04.579Z,30.96
2019-03-23T17:06:45.803Z,31.42
2019-03-23T17:09:15.184Z,31.82
2019-03-23T17:11:46.355Z,31.38
2019-03-23T17:14:17.086Z,31.51
2019-03-23T17:16:48.564Z,31.39
2019-03-23T17:19:18.910Z,31.69
2019-03-23T17:21:49.725Z,31.41
2019-03-23T17:24:19.849Z,31.73
2019-03-23T17:26:49.833Z,31.50
2019-03-23T17:29:21.971Z,31.52
2019-03-23T17:31:53.933Z,31.33
2019-03-23T17:34:25.060Z,31.89
2019-03-23T17:36:56.836Z,32.24
2019-03-23T17:39:27.352Z,32.14
2019-03-23T17:41:57.573Z,32.25
2019-03-23T17:44:30.592Z,32.22
2019-03-23T17:54:27.377Z,34.50
2019-03-23T18:03:30.353Z,37.21
2019-03-23T18:06:04.140Z,37.80
2019-03-23T18:08:35.179Z,38.39
2019-03-23T18:11:05.616Z,38.16
2019-03-23T18:13:36.373Z,38.68
2019-03-23T18:16:08.510Z,38.58
2019-03-23T18:18:39.011Z,38.73
2019-03-23T18:21:09.114Z,38.99
2019-03-23T18:23:39.819Z,39.44
2019-03-23T18:26:10.445Z,39.78
2019-03-23T18:28:41.691Z,40.08
2019-03-23T18:31:11.908Z,39.62
2019-03-23T18:33:49.734Z,37.83
2019-03-23T18:36:20.607Z,38.56
2019-03-23T18:38:52.444Z,39.18
2019-03-23T18:41:22.781Z,39.27
2019-03-23T18:43:55.028Z,39.63
2019-03-23T18:46:26.906Z,40.23
2019-03-23T18:48:57.497Z,40.56
2019-03-23T18:51:29.690Z,40.76
2019-03-23T18:54:00.190Z,40.58
2019-03-23T18:56:30.503Z,40.66
2019-03-23T18:59:02.401Z,40.72
2019-03-23T19:01:36.212Z,41.63
2019-03-23T19:04:06.543Z,42.45
2019-03-23T19:06:37.140Z,42.83
2019-03-23T19:09:08.828Z,43.21
2019-03-23T19:11:39.210Z,43.41
2019-03-23T19:14:09.220Z,43.71
2019-03-23T19:16:41.228Z,43.64
2019-03-23T19:19:11.945Z,43.61
2019-03-23T19:21:44.121Z,43.41
2019-03-23T19:24:14.843Z,43.88
2019-03-23T19:26:45.151Z,43.60
2019-03-23T19:29:16.967Z,42.79
2019-03-23T19:31:48.933Z,42.86
2019-03-23T19:34:20.256Z,43.08
2019-03-23T19:36:50.712Z,43.12
2019-03-23T19:39:20.864Z,44.10
2019-03-23T19:41:52.554Z,43.53
2019-03-23T19:44:23.094Z,43.92
2019-03-23T19:46:53.448Z,44.07
2019-03-23T19:49:24.010Z,44.20
2019-03-23T19:51:58.078Z,44.77
2019-03-23T19:54:32.004Z,44.93
2019-03-23T19:57:08.401Z,44.49
2019-03-23T19:59:40.590Z,45.01
2019-03-23T20:02:22.146Z,45.08
2019-03-23T20:05:02.318Z,45.03
2019-03-23T20:07:36.092Z,44.30
2019-03-23T20:10:17.054Z,43.64
2019-03-23T20:12:53.797Z,44.00
2019-03-23T20:15:31.430Z,43.72
2019-03-23T20:18:08.635Z,43.74
2019-03-23T20:20:48.708Z,44.22
2019-03-23T20:23:38.487Z,44.89
2019-03-23T20:26:21.058Z,45.73
2019-03-23T20:28:59.338Z,45.76
2019-03-23T20:31:36.692Z,44.54
2019-03-23T20:34:08.882Z,44.37
2019-03-23T20:36:45.134Z,44.13
2019-03-23T20:39:24.229Z,43.77
2019-03-23T20:42:02.903Z,44.23
2019-03-23T20:44:47.347Z,44.63
2019-03-23T20:47:25.067Z,44.86
2019-03-23T20:49:59.328Z,44.36
2019-03-23T20:52:32.981Z,44.22
2019-03-23T20:55:16.519Z,43.28
2019-03-23T20:57:54.105Z,42.44
2019-03-23T21:00:29.721Z,42.13
2019-03-23T21:03:01.549Z,41.92
2019-03-23T21:05:38.108Z,42.21
2019-03-23T21:08:09.686Z,42.14
2019-03-23T21:10:43.776Z,41.98
2019-03-23T21:13:30.586Z,42.03
2019-03-23T21:16:10.808Z,42.34
2019-03-23T21:18:45.643Z,42.78
2019-03-23T21:21:32.598Z,42.82
2019-03-23T21:24:11.055Z,42.35
2019-03-23T21:26:43.851Z,41.28
2019-03-23T21:29:17.430Z,41.46
2019-03-23T21:31:56.039Z,41.43
2019-03-23T21:34:31.228Z,41.31
2019-03-23T21:37:09.668Z,41.20
2019-03-23T21:39:54.103Z,41.41
2019-03-23T21:42:41.079Z,41.40
2019-03-23T21:45:29.306Z,41.55
2019-03-23T21:48:11.849Z,40.84
2019-03-23T21:50:50.790Z,40.93
2019-03-23T21:53:27.756Z,41.25
2019-03-23T21:56:19.652Z,41.28
2019-03-23T21:58:54.735Z,41.04
2019-03-23T22:01:26.804Z,40.87
2019-03-23T22:03:58.431Z,40.60
2019-03-23T22:06:30.578Z,40.71
2019-03-23T22:09:06.991Z,40.82
2019-03-23T22:11:42.155Z,40.45
2019-03-23T22:14:14.806Z,40.69
2019-03-23T22:16:47.236Z,40.79
2019-03-23T22:19:33.450Z,40.20
2019-03-23T22:22:06.953Z,40.47
2019-03-23T22:24:58.329Z,39.94
2019-03-23T22:27:32.031Z,40.53
2019-03-23T22:30:08.444Z,40.71
2019-03-23T22:32:41.754Z,40.90
2019-03-23T22:35:14.523Z,41.21
2019-03-23T22:37:52.137Z,41.60
2019-03-23T22:40:23.582Z,41.80
2019-03-23T22:42:56.380Z,41.92
2019-03-23T22:45:31.058Z,41.95
2019-03-23T22:48:05.508Z,41.67
2019-03-23T22:50:38.921Z,41.81
2019-03-23T22:53:18.387Z,41.86
2019-03-23T22:56:04.483Z,42.12
2019-03-23T22:58:57.856Z,42.24
2019-03-23T23:02:06.924Z,42.43
2019-03-23T23:04:52.439Z,42.50
2019-03-23T23:07:43.549Z,42.71
2019-03-23T23:10:31.334Z,43.03
2019-03-23T23:13:19.086Z,43.44
2019-03-23T23:16:07.031Z,43.43
2019-03-23T23:18:53.652Z,43.49
2019-03-23T23:21:50.752Z,43.07
2019-03-23T23:24:34.913Z,43.15
2019-03-23T23:27:38.663Z,43.04
2019-03-23T23:30:30.360Z,43.41
2019-03-23T23:33:07.774Z,43.37
2019-03-23T23:35:47.104Z,43.40
2019-03-23T23:38:34.038Z,43.41
2019-03-23T23:41:30.660Z,43.62
2019-03-23T23:44:09.319Z,44.63
2019-03-23T23:46:51.065Z,45.19
2019-03-23T23:49:47.376Z,44.65
2019-03-23T23:52:32.487Z,44.47
2019-03-23T23:55:09.060Z,44.11
2019-03-23T23:57:43.192Z,43.89
